createdAt,value
2022-10-12T00:01:29.800Z,71.81
2022-10-12T00:03:51.753Z,72.47
2022-10-12T00:06:18.878Z,72.44
2022-10-12T00:08:41.803Z,74.47
2022-10-12T00:11:04.534Z,74.11
2022-10-12T00:13:26.408Z,74.48
2022-10-12T00:15:47.970Z,74.04
2022-10-12T00:18:09.455Z,73.43
2022-10-12T00:20:30.993Z,73.09
2022-10-12T00:22:52.450Z,72.93
2022-10-12T00:25:13.941Z,72.50
2022-10-12T00:27:35.869Z,72.28
2022-10-12T00:29:57.517Z,71.77
2022-10-12T00:32:19.003Z,72.47
2022-10-12T00:34:40.467Z,72.46
2022-10-12T00:37:01.965Z,71.84
2022-10-12T00:39:23.442Z,72.84
2022-10-12T00:41:45.077Z,72.12
2022-10-12T00:44:40.596Z,71.69
2022-10-12T00:47:25.256Z,71.43
2022-10-12T00:50:15.106Z,71.47
2022-10-12T00:52:46.910Z,71.76
2022-10-12T00:55:10.477Z,73.03
2022-10-12T00:57:32.017Z,73.99
2022-10-12T01:00:05.567Z,72.92
2022-10-12T01:02:29.800Z,72.81
2022-10-12T01:04:51.742Z,72.45
2022-10-12T01:07:14.217Z,72.59
2022-10-12T01:09:35.685Z,72.33
2022-10-12T01:11:57.988Z,72.03
2022-10-12T01:14:19.951Z,73.10
2022-10-12T01:16:54.988Z,72.76
2022-10-12T01:19:28.438Z,72.42
2022-10-12T01:22:00.986Z,72.41
2022-10-12T01:24:38.602Z,73.43
2022-10-12T01:27:24.834Z,74.28
2022-10-12T01:30:06.349Z,73.88
2022-10-12T01:32:54.660Z,75.65
2022-10-12T01:35:22.550Z,74.27
2022-10-12T01:38:23.593Z,73.84
2022-10-12T01:40:55.406Z,73.74
2022-10-12T01:43:23.615Z,73.68
2022-10-12T01:45:45.109Z,74.84
2022-10-12T01:48:07.530Z,75.00
2022-10-12T01:50:43.769Z,74.77
2022-10-12T01:53:13.795Z,73.80
2022-10-12T01:55:52.828Z,73.47
2022-10-12T01:58:34.460Z,73.04
2022-10-12T02:01:29.677Z,72.48
2022-10-12T02:04:00.690Z,73.36
2022-10-12T02:06:28.670Z,74.73
2022-10-12T02:09:26.306Z,74.77
2022-10-12T02:11:52.271Z,73.95
2022-10-12T02:14:21.277Z,73.78
2022-10-12T02:16:49.860Z,73.46
2022-10-12T02:19:17.224Z,73.36
2022-10-12T02:21:40.243Z,73.17
2022-10-12T02:24:06.505Z,75.16
2022-10-12T02:26:29.995Z,74.32
2022-10-12T02:28:51.666Z,73.85
2022-10-12T02:31:37.934Z,73.51
2022-10-12T02:34:12.987Z,73.73
2022-10-12T02:36:40.343Z,74.22
2022-10-12T02:39:09.460Z,75.66
2022-10-12T02:41:46.550Z,74.67
2022-10-12T02:44:12.765Z,74.17
2022-10-12T02:46:35.952Z,74.42
2022-10-12T02:48:59.441Z,74.11
2022-10-12T02:51:22.052Z,73.84
2022-10-12T02:53:45.197Z,73.44
2022-10-12T02:56:11.206Z,73.59
2022-10-12T02:58:32.803Z,73.70
2022-10-12T03:00:54.318Z,73.61
2022-10-12T03:03:15.878Z,72.99
2022-10-12T03:05:37.449Z,73.12
2022-10-12T03:07:58.926Z,72.89
2022-10-12T03:10:20.396Z,72.99
2022-10-12T03:12:44.386Z,72.67
2022-10-12T03:15:08.388Z,72.91
2022-10-12T03:17:29.891Z,72.89
2022-10-12T03:19:51.350Z,74.23
2022-10-12T03:22:12.855Z,73.46
2022-10-12T03:24:34.326Z,73.47
2022-10-12T03:26:55.845Z,73.22
2022-10-12T03:29:17.518Z,73.03
2022-10-12T03:31:38.998Z,73.11
2022-10-12T03:34:00.585Z,73.00
2022-10-12T03:36:22.080Z,73.03
2022-10-12T03:38:43.558Z,73.10
2022-10-12T03:41:06.841Z,72.37
2022-10-12T03:43:28.485Z,72.45
2022-10-12T03:45:49.999Z,73.24
2022-10-12T03:48:11.503Z,72.90
2022-10-12T03:50:35.033Z,72.14
2022-10-12T03:52:56.571Z,72.28
2022-10-12T03:55:18.019Z,72.16
2022-10-12T03:57:40.095Z,72.66
2022-10-12T04:00:02.111Z,73.07
2022-10-12T04:02:23.694Z,72.82
2022-10-12T04:04:45.137Z,73.03
2022-10-12T04:07:06.947Z,72.60
2022-10-12T04:09:28.404Z,72.76
2022-10-12T04:11:49.864Z,72.58
2022-10-12T04:14:11.324Z,72.83
2022-10-12T04:16:32.830Z,73.88
2022-10-12T04:18:54.316Z,74.07
2022-10-12T04:21:17.041Z,73.38
2022-10-12T04:23:38.624Z,72.90
2022-10-12T04:26:00.114Z,72.84
2022-10-12T04:28:21.607Z,72.37
2022-10-12T04:30:43.179Z,73.04
2022-10-12T04:33:05.651Z,74.68
2022-10-12T04:35:27.167Z,74.58
2022-10-12T04:37:48.632Z,73.77
2022-10-12T04:40:10.307Z,73.80
2022-10-12T04:42:31.771Z,73.67
2022-10-12T04:44:53.283Z,73.37
2022-10-12T04:47:14.737Z,73.16
2022-10-12T04:49:36.256Z,72.90
2022-10-12T04:51:57.785Z,72.76
2022-10-12T04:54:19.322Z,72.88
2022-10-12T04:56:45.412Z,72.51
2022-10-12T04:59:09.099Z,73.14
2022-10-12T05:01:30.859Z,73.41
2022-10-12T05:03:52.384Z,72.80
2022-10-12T05:06:14.068Z,72.74
2022-10-12T05:08:35.589Z,72.65
2022-10-12T05:10:59.238Z,72.31
2022-10-12T05:13:20.707Z,73.73
2022-10-12T05:15:43.214Z,72.99
2022-10-12T05:18:05.040Z,72.86
2022-10-12T05:20:26.646Z,73.34
2022-10-12T05:22:48.194Z,72.99
2022-10-12T05:25:10.037Z,73.19
2022-10-12T05:27:31.604Z,74.45
2022-10-12T05:29:53.129Z,74.63
2022-10-12T05:32:15.485Z,74.04
2022-10-12T05:34:36.961Z,73.66
2022-10-12T05:36:58.427Z,74.81
2022-10-12T05:39:19.936Z,76.37
2022-10-12T05:41:41.441Z,75.50
2022-10-12T05:44:02.923Z,75.01
2022-10-12T05:46:24.381Z,74.51
2022-10-12T05:48:45.868Z,74.02
2022-10-12T05:51:07.363Z,73.49
2022-10-12T05:53:28.893Z,75.40
2022-10-12T05:55:58.895Z,75.48
2022-10-12T05:58:20.406Z,74.74
2022-10-12T06:00:41.907Z,74.20
2022-10-12T06:03:03.523Z,73.84
2022-10-12T06:05:25.656Z,73.28
2022-10-12T06:07:47.116Z,75.35
2022-10-12T06:10:09.018Z,75.53
2022-10-12T06:12:30.566Z,75.48
2022-10-12T06:14:52.648Z,75.58
2022-10-12T06:17:14.133Z,75.49
2022-10-12T06:19:36.653Z,74.97
2022-10-12T06:21:58.546Z,75.23
2022-10-12T06:24:20.051Z,74.68
2022-10-12T06:26:41.533Z,74.15
2022-10-12T06:29:03.390Z,73.45
2022-10-12T06:31:24.877Z,73.97
2022-10-12T06:33:46.403Z,75.09
2022-10-12T06:36:07.917Z,75.36
2022-10-12T06:38:29.398Z,75.29
2022-10-12T06:40:51.012Z,74.22
2022-10-12T06:43:12.972Z,74.18
2022-10-12T06:45:34.704Z,74.37
2022-10-12T06:47:57.334Z,75.02
2022-10-12T06:50:18.879Z,74.42
2022-10-12T06:52:40.679Z,74.83
2022-10-12T06:55:02.939Z,74.12
2022-10-12T06:57:24.396Z,73.82
2022-10-12T06:59:46.035Z,74.16
2022-10-12T07:02:10.797Z,74.47
2022-10-12T07:04:32.316Z,74.49
2022-10-12T07:06:53.801Z,73.84
2022-10-12T07:09:16.853Z,73.87
2022-10-12T07:11:38.363Z,73.87
2022-10-12T07:13:59.877Z,73.99
2022-10-12T07:16:21.369Z,73.66
2022-10-12T07:18:42.818Z,73.89
2022-10-12T07:21:04.520Z,74.13
2022-10-12T07:23:26.998Z,74.74
2022-10-12T07:25:49.799Z,74.40
2022-10-12T07:28:11.311Z,75.05
2022-10-12T07:30:36.173Z,75.36
2022-10-12T07:32:57.737Z,75.13
2022-10-12T07:35:19.229Z,75.70
2022-10-12T07:37:41.228Z,75.66
2022-10-12T07:40:03.558Z,76.16
2022-10-12T07:42:25.439Z,75.70
2022-10-12T07:44:46.923Z,76.58
2022-10-12T07:47:08.420Z,77.20
2022-10-12T07:49:29.938Z,76.43
2022-10-12T07:51:51.435Z,78.50
2022-10-12T07:54:18.990Z,77.84
2022-10-12T07:56:42.156Z,78.65
2022-10-12T07:59:04.251Z,81.33
2022-10-12T08:01:29.902Z,80.51
2022-10-12T08:03:53.806Z,81.17
2022-10-12T08:06:20.063Z,81.35
2022-10-12T08:08:42.306Z,81.38
2022-10-12T08:11:04.596Z,80.09
2022-10-12T08:13:26.072Z,80.41
2022-10-12T08:15:50.817Z,80.64
2022-10-12T08:18:12.305Z,81.64
2022-10-12T08:20:33.739Z,81.38
2022-10-12T08:22:55.367Z,82.07
2022-10-12T08:25:16.814Z,83.06
2022-10-12T08:31:20.044Z,83.62
2022-10-12T08:33:41.620Z,83.25
2022-10-12T08:36:05.389Z,84.15
2022-10-12T08:38:26.850Z,83.56
2022-10-12T08:40:57.525Z,85.28
2022-10-12T08:43:34.276Z,85.12
2022-10-12T08:46:02.730Z,85.12
2022-10-12T08:48:30.353Z,86.07
2022-10-12T08:50:58.922Z,85.02
2022-10-12T08:53:26.877Z,85.96
2022-10-12T08:55:48.835Z,86.29
2022-10-12T08:58:20.682Z,84.19
2022-10-12T09:00:44.276Z,84.45
2022-10-12T09:03:37.055Z,85.15
2022-10-12T09:06:10.652Z,84.58
2022-10-12T09:08:44.913Z,83.85
2022-10-12T09:11:24.814Z,84.54
2022-10-12T09:14:24.865Z,84.71
2022-10-12T09:16:48.616Z,87.60
2022-10-12T09:19:22.011Z,86.67
2022-10-12T09:21:46.866Z,83.40
2022-10-12T09:24:19.060Z,82.31
2022-10-12T09:26:40.905Z,82.06
2022-10-12T09:29:13.291Z,82.31
2022-10-12T09:31:51.969Z,81.85
2022-10-12T09:34:16.834Z,82.76
2022-10-12T09:36:42.060Z,85.74
2022-10-12T09:39:07.434Z,86.98
2022-10-12T09:41:40.668Z,85.42
2022-10-12T09:44:04.280Z,84.76
2022-10-12T09:46:40.107Z,82.97
2022-10-12T09:49:01.654Z,84.52
2022-10-12T09:51:23.274Z,84.91
2022-10-12T09:53:49.980Z,84.03
2022-10-12T09:56:25.907Z,84.22
2022-10-12T09:58:52.363Z,83.45
2022-10-12T10:01:26.635Z,83.02
2022-10-12T10:03:52.127Z,84.96
2022-10-12T10:06:15.379Z,84.60
2022-10-12T10:08:43.234Z,84.48
2022-10-12T10:11:05.176Z,85.27
2022-10-12T10:13:29.556Z,84.64
2022-10-12T10:16:01.583Z,82.50
2022-10-12T10:18:39.093Z,84.38
2022-10-12T10:21:04.571Z,83.04
2022-10-12T10:23:31.430Z,81.64
2022-10-12T10:26:05.477Z,81.82
2022-10-12T10:28:32.518Z,81.96
2022-10-12T10:31:02.397Z,80.71
2022-10-12T10:33:23.878Z,82.18
2022-10-12T10:35:59.572Z,80.44
2022-10-12T10:38:21.087Z,79.22
2022-10-12T10:40:42.607Z,79.16
2022-10-12T10:43:07.085Z,79.59
2022-10-12T10:45:33.265Z,78.17
2022-10-12T10:48:01.402Z,78.14
2022-10-12T10:50:27.259Z,78.89
2022-10-12T10:52:57.545Z,76.75
2022-10-12T10:55:23.391Z,75.96
2022-10-12T10:58:03.335Z,74.74
2022-10-12T11:00:41.127Z,74.61
2022-10-12T11:03:34.881Z,73.13
2022-10-12T11:06:20.337Z,73.46
2022-10-12T11:08:44.441Z,72.68
2022-10-12T11:11:17.541Z,73.50
2022-10-12T11:13:44.066Z,75.10
2022-10-12T11:16:10.714Z,74.07
2022-10-12T11:18:45.027Z,73.00
2022-10-12T11:21:18.291Z,72.14
2022-10-12T11:23:51.809Z,72.81
2022-10-12T11:26:16.170Z,70.21
2022-10-12T11:28:39.175Z,67.69
2022-10-12T11:31:02.104Z,65.85
2022-10-12T11:33:35.190Z,64.92
2022-10-12T11:35:58.743Z,63.82
2022-10-12T11:38:24.254Z,62.17
2022-10-12T11:41:13.851Z,62.62
2022-10-12T11:43:47.889Z,60.97
2022-10-12T11:46:14.476Z,60.06
2022-10-12T11:49:22.629Z,60.83
2022-10-12T11:51:47.951Z,62.03
2022-10-12T11:54:36.308Z,61.17
2022-10-12T11:57:04.663Z,60.23
2022-10-12T11:59:43.405Z,58.50
2022-10-12T12:02:27.394Z,59.10
2022-10-12T12:04:49.988Z,57.23
2022-10-12T12:07:44.598Z,57.97
2022-10-12T12:10:34.880Z,53.47
2022-10-12T12:13:12.827Z,53.40
2022-10-12T12:15:34.342Z,53.30
2022-10-12T12:18:15.089Z,52.43
2022-10-12T12:20:43.050Z,51.95
2022-10-12T12:23:04.578Z,50.73
2022-10-12T12:25:31.051Z,49.77
2022-10-12T12:28:05.435Z,50.29
2022-10-12T12:30:37.131Z,50.58
2022-10-12T12:33:05.859Z,50.99
2022-10-12T12:35:38.733Z,50.63
2022-10-12T12:38:24.569Z,50.65
2022-10-12T12:40:58.182Z,49.22
2022-10-12T12:43:28.563Z,49.79
2022-10-12T12:46:11.404Z,49.86
2022-10-12T12:48:39.100Z,49.14
2022-10-12T12:51:03.239Z,49.45
2022-10-12T12:53:24.885Z,48.37
2022-10-12T12:55:52.393Z,49.31
2022-10-12T12:58:29.541Z,51.21
2022-10-12T13:01:05.243Z,51.95
2022-10-12T13:03:54.966Z,52.86
2022-10-12T13:06:41.111Z,54.04
2022-10-12T13:09:15.742Z,54.55
2022-10-12T13:12:10.898Z,54.53
2022-10-12T13:14:38.126Z,55.81
2022-10-12T13:19:56.667Z,55.21
2022-10-12T13:22:29.394Z,53.87
2022-10-12T13:24:57.189Z,55.03
2022-10-12T13:27:34.374Z,55.57
2022-10-12T13:30:15.351Z,54.50
2022-10-12T13:32:51.600Z,55.44
2022-10-12T13:35:36.742Z,56.29
2022-10-12T13:38:06.653Z,55.51
2022-10-12T13:40:37.924Z,56.26
2022-10-12T13:43:28.634Z,57.18
2022-10-12T13:45:50.554Z,56.20
2022-10-12T13:48:34.106Z,56.71
2022-10-12T13:51:03.943Z,57.35
2022-10-12T13:53:33.659Z,56.91
2022-10-12T13:56:06.023Z,57.55
2022-10-12T13:58:31.453Z,59.79
2022-10-12T14:00:53.090Z,58.27
2022-10-12T14:03:14.651Z,58.59
2022-10-12T14:05:43.957Z,59.89
2022-10-12T14:08:32.459Z,60.35
2022-10-12T14:10:57.614Z,61.02
2022-10-12T14:13:33.975Z,61.74
2022-10-12T14:15:56.715Z,60.34
2022-10-12T14:18:37.581Z,59.95
2022-10-12T14:21:19.781Z,59.95
2022-10-12T14:23:44.040Z,60.80
2022-10-12T14:26:18.697Z,60.03
2022-10-12T14:28:40.259Z,60.25
2022-10-12T14:31:01.858Z,60.50
2022-10-12T14:33:24.968Z,60.28
2022-10-12T14:35:49.233Z,59.76
2022-10-12T14:38:38.330Z,59.72
2022-10-12T14:41:28.680Z,59.82
2022-10-12T14:44:10.461Z,58.75
2022-10-12T14:46:32.394Z,59.09
2022-10-12T14:48:53.897Z,58.29
2022-10-12T14:51:18.383Z,58.36
2022-10-12T14:53:40.322Z,57.52
2022-10-12T14:56:01.768Z,57.09
2022-10-12T14:58:23.265Z,56.84
2022-10-12T15:00:45.008Z,56.06
2022-10-12T15:03:06.666Z,56.35
2022-10-12T15:05:31.839Z,55.77
2022-10-12T15:07:53.354Z,55.45
2022-10-12T15:10:16.736Z,56.43
2022-10-12T15:12:38.512Z,57.93
2022-10-12T15:15:01.759Z,58.10
2022-10-12T15:17:23.302Z,57.25
2022-10-12T15:19:46.460Z,57.17
2022-10-12T15:22:14.346Z,58.24
2022-10-12T15:24:35.840Z,58.22
2022-10-12T15:26:57.313Z,58.15
2022-10-12T15:29:18.815Z,57.67
2022-10-12T15:31:40.341Z,58.42
2022-10-12T15:34:01.905Z,58.63
2022-10-12T15:36:23.358Z,58.96
2022-10-12T15:38:44.852Z,58.57
2022-10-12T15:41:14.566Z,58.49
2022-10-12T15:43:38.215Z,58.70
2022-10-12T15:46:02.630Z,58.85
2022-10-12T15:48:24.135Z,60.20
2022-10-12T15:50:49.813Z,60.86
2022-10-12T15:53:16.554Z,60.88
2022-10-12T15:55:38.175Z,60.98
2022-10-12T15:57:59.976Z,61.02
2022-10-12T16:00:23.708Z,60.81
2022-10-12T16:02:45.589Z,61.38
2022-10-12T16:05:17.743Z,61.56
2022-10-12T16:07:39.381Z,62.78
2022-10-12T16:10:00.851Z,63.45
2022-10-12T16:12:22.349Z,63.14
2022-10-12T16:14:43.804Z,64.54
2022-10-12T16:17:05.290Z,64.26
2022-10-12T16:19:26.782Z,64.09
2022-10-12T16:21:48.542Z,64.58
2022-10-12T16:24:10.022Z,64.80
2022-10-12T16:26:31.491Z,65.20
2022-10-12T16:28:53.174Z,66.56
2022-10-12T16:31:17.794Z,67.60
2022-10-12T16:33:41.394Z,67.82
2022-10-12T16:36:08.550Z,67.44
2022-10-12T16:38:30.047Z,67.14
2022-10-12T16:40:51.560Z,66.81
2022-10-12T16:43:13.057Z,66.85
2022-10-12T16:45:34.710Z,67.07
2022-10-12T16:47:56.261Z,67.43
2022-10-12T16:50:19.332Z,68.03
2022-10-12T16:52:40.828Z,68.22
2022-10-12T16:55:02.358Z,68.81
2022-10-12T16:57:24.139Z,68.76
2022-10-12T16:59:46.656Z,69.26
2022-10-12T17:02:11.109Z,69.02
2022-10-12T17:04:33.175Z,69.53
2022-10-12T17:06:54.986Z,71.14
2022-10-12T17:09:16.557Z,70.83
2022-10-12T17:11:39.867Z,70.84
2022-10-12T17:14:03.908Z,70.64
2022-10-12T17:16:43.695Z,71.39
2022-10-12T17:19:05.378Z,70.89
2022-10-12T17:21:27.846Z,70.69
2022-10-12T17:23:49.854Z,70.85
2022-10-12T17:26:11.364Z,71.03
2022-10-12T17:28:37.506Z,70.88
2022-10-12T17:31:07.976Z,72.15
2022-10-12T17:33:32.721Z,72.87
2022-10-12T17:35:54.202Z,73.10
2022-10-12T17:38:15.676Z,72.79
2022-10-12T17:40:39.289Z,72.45
2022-10-12T17:43:00.783Z,72.22
2022-10-12T17:45:22.254Z,72.17
2022-10-12T17:47:43.850Z,72.04
2022-10-12T17:50:05.933Z,72.03
2022-10-12T17:52:27.525Z,72.60
2022-10-12T17:54:49.035Z,72.52
2022-10-12T17:57:10.636Z,72.44
2022-10-12T17:59:32.186Z,73.92
2022-10-12T18:01:54.498Z,75.54
2022-10-12T18:04:16.190Z,74.46
2022-10-12T18:06:38.342Z,74.63
2022-10-12T18:09:01.711Z,74.56
2022-10-12T18:11:24.137Z,75.66
2022-10-12T18:13:51.552Z,74.61
2022-10-12T18:16:13.239Z,74.45
2022-10-12T18:18:34.758Z,74.45
2022-10-12T18:20:56.278Z,74.76
2022-10-12T18:23:17.829Z,77.42
2022-10-12T18:25:40.903Z,77.12
2022-10-12T18:28:02.400Z,75.77
2022-10-12T18:30:23.916Z,75.43
2022-10-12T18:32:45.402Z,75.09
2022-10-12T18:35:07.235Z,74.75
2022-10-12T18:37:28.706Z,74.62
2022-10-12T18:39:50.187Z,75.60
2022-10-12T18:42:11.676Z,77.23
2022-10-12T18:44:33.169Z,76.19
2022-10-12T18:46:54.737Z,76.07
2022-10-12T18:49:16.599Z,76.08
2022-10-12T18:51:40.818Z,76.98
2022-10-12T18:54:03.557Z,76.14
2022-10-12T18:56:25.769Z,75.47
2022-10-12T18:58:47.388Z,75.36
2022-10-12T19:01:14.649Z,77.28
2022-10-12T19:03:36.218Z,76.20
2022-10-12T19:06:09.877Z,75.98
2022-10-12T19:08:31.453Z,76.91
2022-10-12T19:10:52.954Z,77.17
2022-10-12T19:13:14.486Z,76.59
2022-10-12T19:15:37.350Z,76.77
2022-10-12T19:17:58.848Z,77.39
2022-10-12T19:20:20.417Z,80.48
2022-10-12T19:22:41.984Z,77.98
2022-10-12T19:25:03.770Z,77.73
2022-10-12T19:27:25.364Z,77.84
2022-10-12T19:29:47.242Z,77.10
2022-10-12T19:32:08.747Z,77.25
2022-10-12T19:34:30.640Z,76.66
2022-10-12T19:36:52.430Z,76.57
2022-10-12T19:39:17.226Z,77.15
2022-10-12T19:41:38.803Z,77.03
2022-10-12T19:44:01.596Z,77.22
2022-10-12T19:46:23.453Z,78.18
2022-10-12T19:48:50.092Z,76.99
2022-10-12T19:51:13.365Z,76.97
2022-10-12T19:53:35.166Z,77.01
2022-10-12T19:56:06.087Z,77.91
2022-10-12T19:58:28.766Z,77.52
2022-10-12T20:00:50.252Z,77.38
2022-10-12T20:03:11.828Z,78.13
2022-10-12T20:05:34.329Z,77.87
2022-10-12T20:07:55.895Z,77.70
2022-10-12T20:10:17.587Z,78.14
2022-10-12T20:12:39.054Z,77.33
2022-10-12T20:15:00.585Z,77.36
2022-10-12T20:17:22.064Z,77.82
2022-10-12T20:19:43.591Z,77.62
2022-10-12T20:22:05.063Z,77.48
2022-10-12T20:24:26.559Z,77.88
2022-10-12T20:26:48.065Z,78.14
2022-10-12T20:29:09.574Z,79.02
2022-10-12T20:31:31.118Z,79.18
2022-10-12T20:33:53.592Z,81.35
2022-10-12T20:36:21.453Z,83.39
2022-10-12T20:38:43.816Z,83.64
2022-10-12T20:41:10.976Z,81.54
2022-10-12T20:43:32.706Z,81.09
2022-10-12T20:45:54.190Z,82.23
2022-10-12T20:48:15.685Z,82.55
2022-10-12T20:50:37.441Z,81.66
2022-10-12T20:52:58.916Z,81.14
2022-10-12T20:55:20.893Z,80.88
2022-10-12T20:57:42.388Z,80.04
2022-10-12T21:00:05.970Z,79.87
2022-10-12T21:02:27.430Z,79.88
2022-10-12T21:04:49.539Z,79.57
2022-10-12T21:07:15.624Z,79.22
2022-10-12T21:09:37.088Z,80.07
2022-10-12T21:11:58.586Z,78.96
2022-10-12T21:14:20.174Z,79.02
2022-10-12T21:16:41.803Z,78.83
2022-10-12T21:19:03.592Z,79.14
2022-10-12T21:21:25.346Z,79.12
2022-10-12T21:23:58.306Z,81.30
2022-10-12T21:26:22.027Z,81.13
2022-10-12T21:28:44.495Z,80.67
2022-10-12T21:31:06.473Z,80.44
2022-10-12T21:33:28.440Z,82.43
2022-10-12T21:35:49.892Z,81.50
2022-10-12T21:38:11.419Z,80.81
2022-10-12T21:40:33.846Z,80.47
2022-10-12T21:42:55.321Z,80.63
2022-10-12T21:45:16.771Z,83.09
2022-10-12T21:47:38.291Z,82.53
2022-10-12T21:49:59.757Z,81.68
2022-10-12T21:52:21.488Z,84.73
2022-10-12T21:54:43.118Z,82.72
2022-10-12T21:57:04.589Z,81.92
2022-10-12T22:04:18.217Z,80.81
2022-10-12T22:06:40.370Z,81.43
2022-10-12T22:09:05.279Z,80.94
2022-10-12T22:11:28.444Z,83.95
2022-10-12T22:13:50.306Z,82.71
2022-10-12T22:16:15.057Z,82.24
2022-10-12T22:18:36.849Z,81.78
2022-10-12T22:21:02.608Z,81.79
2022-10-12T22:23:24.103Z,83.34
2022-10-12T22:25:45.564Z,84.15
2022-10-12T22:28:07.061Z,83.37
2022-10-12T22:30:28.562Z,83.63
2022-10-12T22:32:50.105Z,83.66
2022-10-12T22:35:11.629Z,86.51
2022-10-12T22:37:33.116Z,84.46
2022-10-12T22:39:54.556Z,83.51
2022-10-12T22:42:16.678Z,82.77
2022-10-12T22:44:38.438Z,82.16
2022-10-12T22:46:59.942Z,82.14
2022-10-12T22:49:21.514Z,81.85
2022-10-12T22:51:43.039Z,82.31
2022-10-12T22:54:05.393Z,82.59
2022-10-12T22:56:27.080Z,82.12
2022-10-12T22:58:54.176Z,82.32
2022-10-12T23:01:17.584Z,82.44
2022-10-12T23:03:39.704Z,83.60
2022-10-12T23:06:01.171Z,82.72
2022-10-12T23:08:22.811Z,82.45
2022-10-12T23:10:44.290Z,82.65
2022-10-12T23:13:05.790Z,83.57
2022-10-12T23:15:27.241Z,82.72
2022-10-12T23:17:48.717Z,82.20
2022-10-12T23:20:10.518Z,83.48
2022-10-12T23:22:32.224Z,85.33
2022-10-12T23:24:53.784Z,86.74
2022-10-12T23:27:15.467Z,87.49
2022-10-12T23:29:36.926Z,86.06
2022-10-12T23:31:58.394Z,85.28
2022-10-12T23:34:19.846Z,84.64
2022-10-12T23:36:41.417Z,84.03
2022-10-12T23:39:05.322Z,83.88
2022-10-12T23:41:26.911Z,83.52
2022-10-12T23:43:48.433Z,83.50
2022-10-12T23:46:11.626Z,85.08
2022-10-12T23:48:33.374Z,84.09
2022-10-12T23:50:54.985Z,84.71
2022-10-12T23:53:16.461Z,84.32
2022-10-12T23:55:37.932Z,84.86
2022-10-12T23:57:59.475Z,84.94
